createdAt,value
2023-02-06T00:01:54.719Z,20.58
2023-02-06T00:04:25.437Z,20.42
2023-02-06T00:06:52.155Z,24.55
2023-02-06T00:09:20.940Z,23.33
2023-02-06T00:11:49.741Z,20.48
2023-02-06T00:14:21.002Z,18.48
2023-02-06T00:16:48.632Z,18.63
2023-02-06T00:19:43.961Z,20.45
2023-02-06T00:22:13.625Z,16.55
2023-02-06T00:24:43.734Z,18.58
2023-02-06T00:27:10.310Z,29.33
2023-02-06T00:29:40.078Z,18.00
2023-02-06T00:32:12.000Z,28.73
2023-02-06T00:34:41.837Z,21.42
2023-02-06T00:37:08.538Z,25.80
2023-02-06T00:40:07.323Z,18.52
2023-02-06T00:42:35.826Z,21.25
2023-02-06T00:45:54.135Z,21.83
2023-02-06T00:48:24.533Z,21.40
2023-02-06T00:50:53.417Z,35.03
2023-02-06T00:53:20.642Z,41.70
2023-02-06T00:55:49.856Z,28.55
2023-02-06T00:58:17.770Z,27.27
2023-02-06T01:00:45.363Z,27.83
2023-02-06T01:03:14.343Z,21.42
2023-02-06T01:05:44.562Z,18.70
2023-02-06T01:08:12.695Z,19.95
2023-02-06T01:10:45.836Z,23.42
2023-02-06T01:13:13.539Z,21.58
2023-02-06T01:15:41.086Z,23.85
2023-02-06T01:18:11.154Z,23.17
2023-02-06T01:20:41.826Z,25.67
2023-02-06T01:23:11.972Z,28.02
2023-02-06T01:25:43.156Z,21.80
2023-02-06T01:28:11.711Z,21.63
2023-02-06T01:30:50.151Z,24.40
2023-02-06T01:33:17.796Z,26.70
2023-02-06T01:35:44.594Z,22.08
2023-02-06T01:38:13.744Z,23.60
2023-02-06T01:40:43.783Z,25.17
2023-02-06T01:43:17.451Z,22.85
2023-02-06T01:46:13.813Z,26.33
2023-02-06T01:48:53.187Z,23.80
2023-02-06T01:51:25.263Z,23.40
2023-02-06T01:53:57.749Z,21.40
2023-02-06T01:56:33.199Z,23.10
2023-02-06T01:59:05.550Z,26.00
2023-02-06T02:02:01.984Z,22.95
2023-02-06T02:04:32.431Z,25.70
2023-02-06T02:07:24.326Z,22.92
2023-02-06T02:09:52.568Z,29.60
2023-02-06T02:12:20.825Z,26.38
2023-02-06T02:14:50.343Z,27.20
2023-02-06T02:17:57.372Z,24.92
2023-02-06T02:20:39.103Z,28.65
2023-02-06T02:23:53.623Z,28.85
2023-02-06T02:26:58.319Z,29.05
2023-02-06T02:29:30.192Z,30.23
2023-02-06T02:32:22.360Z,29.70
2023-02-06T02:35:20.621Z,31.38
2023-02-06T02:38:07.608Z,28.33
2023-02-06T02:41:10.617Z,30.70
2023-02-06T02:43:49.731Z,28.38
2023-02-06T02:46:27.303Z,32.33
2023-02-06T02:49:10.512Z,25.52
2023-02-06T02:51:40.730Z,28.98
2023-02-06T02:54:11.025Z,25.35
2023-02-06T02:56:39.233Z,27.98
2023-02-06T02:59:14.450Z,25.85
2023-02-06T03:02:19.332Z,29.67
2023-02-06T03:04:54.382Z,30.80
2023-02-06T03:07:52.348Z,32.63
2023-02-06T03:10:52.893Z,31.42
2023-02-06T03:14:09.179Z,31.60
2023-02-06T03:16:49.301Z,33.72
2023-02-06T03:19:50.873Z,35.03
2023-02-06T03:22:20.660Z,27.17
2023-02-06T03:24:52.674Z,30.60
2023-02-06T03:27:24.382Z,34.50
2023-02-06T03:29:54.102Z,26.35
2023-02-06T03:32:34.552Z,30.38
2023-02-06T03:35:15.790Z,32.53
2023-02-06T03:37:49.152Z,26.95
2023-02-06T03:40:18.399Z,27.90
2023-02-06T03:42:50.984Z,25.75
2023-02-06T03:45:30.318Z,29.60
2023-02-06T03:48:27.934Z,28.83
2023-02-06T03:51:01.879Z,25.10
2023-02-06T03:53:33.493Z,27.30
2023-02-06T03:56:13.353Z,29.70
2023-02-06T03:58:40.389Z,32.17
2023-02-06T04:01:13.443Z,29.02
2023-02-06T04:03:40.951Z,29.48
2023-02-06T04:06:08.648Z,29.17
2023-02-06T04:08:36.517Z,32.47
2023-02-06T04:11:05.525Z,28.42
2023-02-06T04:13:36.185Z,27.42
2023-02-06T04:16:08.614Z,31.65
2023-02-06T04:18:43.941Z,32.85
2023-02-06T04:21:14.964Z,30.67
2023-02-06T04:23:41.978Z,27.65
2023-02-06T04:26:10.288Z,35.60
2023-02-06T04:28:38.227Z,29.38
2023-02-06T04:31:06.111Z,29.92
2023-02-06T04:33:39.209Z,30.00
2023-02-06T04:36:39.094Z,29.85
2023-02-06T04:39:07.752Z,27.75
2023-02-06T04:41:38.009Z,28.95
2023-02-06T04:44:08.749Z,29.88
2023-02-06T04:47:04.789Z,31.27
2023-02-06T04:49:31.447Z,32.17
2023-02-06T04:52:02.085Z,29.13
2023-02-06T04:54:29.778Z,28.02
2023-02-06T04:56:59.082Z,30.48
2023-02-06T04:59:30.559Z,31.23
2023-02-06T05:01:59.316Z,29.45
2023-02-06T05:04:30.424Z,28.25
2023-02-06T05:06:57.154Z,32.70
2023-02-06T05:09:26.072Z,30.15
2023-02-06T05:11:55.322Z,28.33
2023-02-06T05:14:25.099Z,29.00
2023-02-06T05:16:54.953Z,29.42
2023-02-06T05:19:22.521Z,29.17
2023-02-06T05:21:49.307Z,29.80
2023-02-06T05:24:19.089Z,28.33
2023-02-06T05:26:46.741Z,29.50
2023-02-06T05:29:13.507Z,27.65
2023-02-06T05:31:40.337Z,32.20
2023-02-06T05:34:09.291Z,31.95
2023-02-06T05:36:39.760Z,25.80
2023-02-06T05:39:06.454Z,31.42
2023-02-06T05:41:33.227Z,25.30
2023-02-06T05:44:00.452Z,26.98
2023-02-06T05:46:31.552Z,28.73
2023-02-06T05:49:03.307Z,29.95
2023-02-06T05:51:32.866Z,24.80
2023-02-06T05:54:02.410Z,31.10
2023-02-06T05:56:31.336Z,24.95
2023-02-06T05:58:58.907Z,27.92
2023-02-06T06:01:28.446Z,25.35
2023-02-06T06:04:47.081Z,28.52
2023-02-06T06:07:18.731Z,26.20
2023-02-06T06:09:48.614Z,30.70
2023-02-06T06:12:15.234Z,29.45
2023-02-06T06:14:41.967Z,29.55
2023-02-06T06:17:08.950Z,30.65
2023-02-06T06:19:35.604Z,27.98
2023-02-06T06:22:02.290Z,28.13
2023-02-06T06:24:28.961Z,27.85
2023-02-06T06:26:55.629Z,29.10
2023-02-06T06:29:24.669Z,26.13
2023-02-06T06:31:55.567Z,25.67
2023-02-06T06:34:26.700Z,21.90
2023-02-06T06:36:53.729Z,23.13
2023-02-06T06:39:22.698Z,24.23
2023-02-06T06:41:53.567Z,28.48
2023-02-06T06:44:23.481Z,25.75
2023-02-06T06:46:52.292Z,28.10
2023-02-06T06:49:21.104Z,25.80
2023-02-06T06:51:52.479Z,28.00
2023-02-06T06:54:19.274Z,32.40
2023-02-06T06:56:53.801Z,30.92
2023-02-06T06:59:24.083Z,31.58
2023-02-06T07:01:55.380Z,36.85
2023-02-06T07:04:28.690Z,28.55
2023-02-06T07:06:59.377Z,34.15
2023-02-06T07:09:26.108Z,32.20
2023-02-06T07:12:17.859Z,33.92
2023-02-06T07:14:44.578Z,32.05
2023-02-06T07:17:15.789Z,36.30
2023-02-06T07:19:47.377Z,34.88
2023-02-06T07:22:42.854Z,32.10
2023-02-06T07:25:11.931Z,32.03
2023-02-06T07:33:59.351Z,31.27
2023-02-06T07:36:30.366Z,26.70
2023-02-06T07:38:57.880Z,27.02
2023-02-06T07:41:24.474Z,28.42
2023-02-06T07:43:54.281Z,28.73
2023-02-06T07:46:25.760Z,27.65
2023-02-06T07:48:52.809Z,26.23
2023-02-06T07:51:22.454Z,28.13
2023-02-06T07:53:51.372Z,29.52
2023-02-06T07:56:20.238Z,31.38
2023-02-06T07:58:52.795Z,32.03
2023-02-06T08:01:22.866Z,37.08
2023-02-06T08:03:53.284Z,45.75
2023-02-06T08:06:24.208Z,36.33
2023-02-06T08:08:56.411Z,50.20
2023-02-06T08:11:29.324Z,29.55
2023-02-06T08:14:00.283Z,27.55
2023-02-06T08:16:27.097Z,25.00
2023-02-06T08:18:53.820Z,27.35
2023-02-06T08:21:24.653Z,25.70
2023-02-06T08:23:59.924Z,28.08
2023-02-06T08:26:28.643Z,27.70
2023-02-06T08:28:58.156Z,26.92
2023-02-06T08:31:35.099Z,25.92
2023-02-06T08:34:05.345Z,24.77
2023-02-06T08:36:32.868Z,27.08
2023-02-06T08:39:00.718Z,27.17
2023-02-06T08:41:36.312Z,24.83
2023-02-06T08:44:05.539Z,27.45
2023-02-06T08:46:32.762Z,23.52
2023-02-06T08:49:05.833Z,28.98
2023-02-06T08:51:35.000Z,23.83
2023-02-06T08:54:36.004Z,27.58
2023-02-06T08:57:19.496Z,22.92
2023-02-06T08:59:48.939Z,23.83
2023-02-06T09:02:18.171Z,26.92
2023-02-06T09:04:48.484Z,29.27
2023-02-06T09:07:17.276Z,24.60
2023-02-06T09:09:44.022Z,29.20
2023-02-06T09:12:11.313Z,25.02
2023-02-06T09:14:40.535Z,21.27
2023-02-06T09:17:08.642Z,21.63
2023-02-06T09:19:37.989Z,23.73
2023-02-06T09:22:07.187Z,20.75
2023-02-06T09:24:43.123Z,22.08
2023-02-06T09:27:09.937Z,19.92
2023-02-06T09:29:40.275Z,18.20
2023-02-06T09:32:58.840Z,21.10
2023-02-06T09:35:33.201Z,17.02
2023-02-06T09:40:32.212Z,16.45
2023-02-06T09:43:00.940Z,20.95
2023-02-06T09:45:29.397Z,15.45
2023-02-06T09:48:04.026Z,17.58
2023-02-06T09:51:01.981Z,15.02
2023-02-06T09:53:37.336Z,9.93
2023-02-06T09:56:32.148Z,8.70
2023-02-06T09:59:40.050Z,11.25
2023-02-06T10:02:17.749Z,10.65
2023-02-06T10:05:13.429Z,12.85
2023-02-06T10:08:01.247Z,12.57
2023-02-06T10:10:39.430Z,10.98
2023-02-06T10:13:41.673Z,15.90
2023-02-06T10:16:33.360Z,9.57
2023-02-06T10:19:20.702Z,10.45
2023-02-06T10:22:00.041Z,12.23
2023-02-06T10:24:39.018Z,9.85
2023-02-06T10:27:14.925Z,9.40
2023-02-06T10:29:45.953Z,9.15
2023-02-06T10:32:40.865Z,9.27
2023-02-06T10:35:22.877Z,7.28
2023-02-06T10:38:02.213Z,9.73
2023-02-06T10:40:47.756Z,9.10
2023-02-06T10:43:26.030Z,10.13
2023-02-06T10:46:48.651Z,18.95
2023-02-06T10:49:36.102Z,11.25
2023-02-06T10:52:27.909Z,14.20
2023-02-06T10:55:02.631Z,11.57
2023-02-06T10:57:34.016Z,7.60
2023-02-06T11:00:04.514Z,9.18
2023-02-06T11:02:47.486Z,8.95
2023-02-06T11:05:23.624Z,7.95
2023-02-06T11:08:15.444Z,9.52
2023-02-06T11:10:45.700Z,11.52
2023-02-06T11:13:34.307Z,6.80
2023-02-06T11:16:14.063Z,5.82
2023-02-06T11:18:48.834Z,8.55
2023-02-06T11:24:35.074Z,7.03
2023-02-06T11:27:12.031Z,11.52
2023-02-06T11:29:51.873Z,8.73
2023-02-06T11:32:58.869Z,8.13
2023-02-06T11:35:48.917Z,10.70
2023-02-06T11:38:20.299Z,9.32
2023-02-06T11:41:21.468Z,15.48
2023-02-06T11:43:50.636Z,10.15
2023-02-06T11:46:36.021Z,14.98
2023-02-06T11:49:25.083Z,14.68
2023-02-06T11:52:00.242Z,13.15
2023-02-06T11:54:38.733Z,16.25
2023-02-06T11:57:26.061Z,18.23
2023-02-06T11:59:57.084Z,25.65
2023-02-06T12:02:37.050Z,12.30
2023-02-06T12:05:29.784Z,13.18
2023-02-06T12:08:12.143Z,10.13
2023-02-06T12:11:12.357Z,9.07
2023-02-06T12:13:46.510Z,11.15
2023-02-06T12:16:15.941Z,11.85
2023-02-06T12:18:48.679Z,13.52
2023-02-06T12:24:43.598Z,11.48
2023-02-06T12:27:34.413Z,8.90
2023-02-06T12:30:33.340Z,8.10
2023-02-06T12:33:11.916Z,8.68
2023-02-06T12:35:44.270Z,7.13
2023-02-06T12:38:30.662Z,21.27
2023-02-06T12:41:34.723Z,8.55
2023-02-06T12:44:05.276Z,8.43
2023-02-06T12:46:36.085Z,9.15
2023-02-06T12:49:54.247Z,7.15
2023-02-06T12:52:27.226Z,6.30
2023-02-06T12:55:05.560Z,6.53
2023-02-06T12:57:36.407Z,7.20
2023-02-06T13:00:04.685Z,8.02
2023-02-06T13:03:17.245Z,5.07
2023-02-06T13:06:11.980Z,7.13
2023-02-06T13:09:00.111Z,5.35
2023-02-06T13:11:39.980Z,6.70
2023-02-06T13:14:12.469Z,6.18
2023-02-06T13:16:45.278Z,8.48
2023-02-06T13:19:25.551Z,7.32
2023-02-06T13:22:20.519Z,7.60
2023-02-06T13:25:00.807Z,5.45
2023-02-06T13:27:40.090Z,5.97
2023-02-06T13:30:28.372Z,5.78
2023-02-06T13:33:19.459Z,4.57
2023-02-06T13:35:55.272Z,6.25
2023-02-06T13:38:38.858Z,6.72
2023-02-06T13:41:38.241Z,7.13
2023-02-06T13:44:29.978Z,6.50
2023-02-06T13:47:07.275Z,6.30
2023-02-06T13:50:04.708Z,5.38
2023-02-06T13:53:00.386Z,4.05
2023-02-06T13:55:53.282Z,6.40
2023-02-06T13:58:47.130Z,4.32
2023-02-06T14:01:20.042Z,6.03
2023-02-06T14:22:22.372Z,4.72
2023-02-06T14:25:28.419Z,4.28
2023-02-06T14:28:10.808Z,7.35
2023-02-06T14:30:59.484Z,6.63
2023-02-06T14:33:42.102Z,4.05
2023-02-06T14:36:52.510Z,7.25
2023-02-06T14:40:13.545Z,5.45
2023-02-06T14:42:46.734Z,5.38
2023-02-06T14:45:33.868Z,6.63
2023-02-06T14:48:29.086Z,5.13
2023-02-06T14:50:59.322Z,6.05
2023-02-06T14:53:37.341Z,6.47
2023-02-06T14:56:13.478Z,7.22
2023-02-06T14:58:45.559Z,5.25
2023-02-06T15:01:18.454Z,6.07
2023-02-06T15:06:32.956Z,6.05
2023-02-06T15:09:00.624Z,9.48
2023-02-06T15:11:32.990Z,7.97
2023-02-06T15:14:23.459Z,11.38
2023-02-06T15:16:51.119Z,13.38
2023-02-06T15:19:24.543Z,12.77
2023-02-06T15:22:09.438Z,7.85
2023-02-06T15:25:03.835Z,7.65
2023-02-06T15:27:38.102Z,13.95
2023-02-06T15:30:38.342Z,34.70
2023-02-06T15:33:10.350Z,9.50
2023-02-06T15:35:47.718Z,5.80
2023-02-06T15:38:15.997Z,4.90
2023-02-06T15:40:48.514Z,8.80
2023-02-06T15:43:21.441Z,9.00
2023-02-06T15:45:50.444Z,11.05
2023-02-06T15:48:20.508Z,6.95
2023-02-06T15:51:17.083Z,7.95
2023-02-06T15:53:48.663Z,8.55
2023-02-06T15:56:31.033Z,9.05
2023-02-06T15:59:19.672Z,11.25
2023-02-06T16:01:47.518Z,7.35
2023-02-06T16:04:23.434Z,5.53
2023-02-06T16:07:19.155Z,7.03
2023-02-06T16:09:53.830Z,5.93
2023-02-06T16:12:24.397Z,11.23
2023-02-06T16:14:55.554Z,6.15
2023-02-06T16:17:39.322Z,5.45
2023-02-06T16:20:31.496Z,5.32
2023-02-06T16:23:17.617Z,7.97
2023-02-06T16:26:06.734Z,8.82
2023-02-06T16:28:56.141Z,8.00
2023-02-06T16:31:51.663Z,9.00
2023-02-06T16:34:38.286Z,17.98
2023-02-06T16:37:13.827Z,79.88
2023-02-06T16:39:41.831Z,98.57
2023-02-06T16:42:25.726Z,13.02
2023-02-06T16:44:58.698Z,11.05
2023-02-06T16:47:26.332Z,12.25
2023-02-06T16:49:59.635Z,9.18
2023-02-06T16:52:32.517Z,12.93
2023-02-06T16:55:03.042Z,24.02
2023-02-06T16:57:32.317Z,21.15
2023-02-06T17:00:01.438Z,28.52
2023-02-06T17:02:32.375Z,22.10
2023-02-06T17:05:01.428Z,25.08
2023-02-06T17:07:34.416Z,24.02
2023-02-06T17:10:09.160Z,19.05
2023-02-06T17:13:03.753Z,13.90
2023-02-06T17:15:31.720Z,8.43
2023-02-06T17:18:00.202Z,6.72
2023-02-06T17:20:34.980Z,5.78
2023-02-06T17:23:06.087Z,4.97
2023-02-06T17:25:33.148Z,5.00
2023-02-06T17:28:03.575Z,7.10
2023-02-06T17:30:30.625Z,5.90
2023-02-06T17:32:57.475Z,5.20
2023-02-06T17:35:24.590Z,4.25
2023-02-06T17:37:56.309Z,6.90
2023-02-06T17:40:28.886Z,8.70
2023-02-06T17:42:59.184Z,8.75
2023-02-06T17:45:26.595Z,4.22
2023-02-06T17:47:57.349Z,8.60
2023-02-06T17:50:27.272Z,9.85
2023-02-06T17:53:21.928Z,5.55
2023-02-06T17:55:55.350Z,8.23
2023-02-06T17:58:27.355Z,9.30
2023-02-06T18:00:56.274Z,6.43
2023-02-06T18:04:26.618Z,11.30
2023-02-06T18:06:58.575Z,52.63
2023-02-06T18:09:25.419Z,18.70
2023-02-06T18:12:23.929Z,30.70
2023-02-06T18:14:50.957Z,49.67
2023-02-06T18:17:23.848Z,25.63
2023-02-06T18:19:52.600Z,14.85
2023-02-06T18:22:49.891Z,4.75
2023-02-06T18:25:17.897Z,8.02
2023-02-06T18:27:50.345Z,3.38
2023-02-06T18:30:18.736Z,2.90
2023-02-06T18:32:49.329Z,3.20
2023-02-06T18:35:19.136Z,4.65
2023-02-06T18:37:46.294Z,4.78
2023-02-06T18:40:15.708Z,4.03
2023-02-06T18:43:09.879Z,4.47
2023-02-06T18:45:40.041Z,5.80
2023-02-06T18:51:10.238Z,6.70
2023-02-06T18:53:41.858Z,12.68
2023-02-06T18:57:01.154Z,12.85
2023-02-06T18:59:28.452Z,10.02
2023-02-06T19:01:55.464Z,20.75
2023-02-06T19:04:28.721Z,25.02
2023-02-06T19:06:56.808Z,20.90
2023-02-06T19:09:27.279Z,17.63
2023-02-06T19:11:54.043Z,11.63
2023-02-06T19:14:26.440Z,8.82
2023-02-06T19:16:57.726Z,12.50
2023-02-06T19:19:28.298Z,9.35
2023-02-06T19:21:55.823Z,7.65
2023-02-06T19:24:27.493Z,11.73
2023-02-06T19:26:58.132Z,9.63
2023-02-06T19:29:54.025Z,10.60
2023-02-06T19:32:21.740Z,11.02
2023-02-06T19:34:54.765Z,8.43
2023-02-06T19:37:22.838Z,11.30
2023-02-06T19:39:53.330Z,14.30
2023-02-06T19:42:20.134Z,7.63
2023-02-06T19:44:54.160Z,9.75
2023-02-06T19:47:28.530Z,10.55
2023-02-06T19:50:48.726Z,224.43
2023-02-06T19:53:17.004Z,106.32
2023-02-06T19:55:48.081Z,86.03
2023-02-06T19:58:18.737Z,15.00
2023-02-06T20:00:49.122Z,11.38
2023-02-06T20:03:16.370Z,9.35
2023-02-06T20:05:46.767Z,9.98
2023-02-06T20:08:13.795Z,4.50
2023-02-06T20:11:10.756Z,4.47
2023-02-06T20:13:40.059Z,4.85
2023-02-06T20:16:20.809Z,6.78
2023-02-06T20:18:47.600Z,5.55
2023-02-06T20:21:31.242Z,6.68
2023-02-06T20:24:01.182Z,4.22
2023-02-06T20:26:32.254Z,5.72
2023-02-06T20:28:59.447Z,5.80
2023-02-06T20:31:27.997Z,8.68
2023-02-06T20:33:56.907Z,6.35
2023-02-06T20:36:32.577Z,7.68
2023-02-06T20:39:26.197Z,6.43
2023-02-06T20:45:15.866Z,4.75
2023-02-06T20:48:10.088Z,4.90
2023-02-06T20:50:38.609Z,3.92
2023-02-06T20:53:09.490Z,3.92
2023-02-06T20:55:41.198Z,5.00
2023-02-06T20:58:08.416Z,6.75
2023-02-06T21:00:35.325Z,4.25
2023-02-06T21:03:02.026Z,4.15
2023-02-06T21:05:32.627Z,6.13
2023-02-06T21:08:03.702Z,5.22
2023-02-06T21:10:34.655Z,3.85
2023-02-06T21:13:02.950Z,3.45
2023-02-06T21:15:59.412Z,11.27
2023-02-06T21:18:30.935Z,6.13
2023-02-06T21:21:12.709Z,12.43
2023-02-06T21:23:49.693Z,5.03
2023-02-06T21:26:17.548Z,3.55
2023-02-06T21:28:45.775Z,4.63
2023-02-06T21:31:40.426Z,2.83
2023-02-06T21:34:20.542Z,3.85
2023-02-06T21:36:50.608Z,4.78
2023-02-06T21:39:20.567Z,5.80
2023-02-06T21:41:53.906Z,3.08
2023-02-06T21:44:25.912Z,4.53
2023-02-06T21:47:21.224Z,10.35
2023-02-06T21:49:50.550Z,5.05
2023-02-06T21:52:20.667Z,5.38
2023-02-06T21:54:47.345Z,4.60
2023-02-06T21:57:20.171Z,4.65
2023-02-06T21:59:49.191Z,5.13
2023-02-06T22:02:18.930Z,6.15
2023-02-06T22:04:45.697Z,4.40
2023-02-06T22:07:17.455Z,7.07
2023-02-06T22:09:46.764Z,5.83
2023-02-06T22:12:16.572Z,4.10
2023-02-06T22:15:16.859Z,5.10
2023-02-06T22:17:44.952Z,5.03
2023-02-06T22:20:41.179Z,4.00
2023-02-06T22:23:14.147Z,5.72
2023-02-06T22:25:47.569Z,6.55
2023-02-06T22:28:14.307Z,3.83
2023-02-06T22:30:48.305Z,6.50
2023-02-06T22:33:16.030Z,9.82
2023-02-06T22:36:14.568Z,6.63
2023-02-06T22:38:47.668Z,6.57
2023-02-06T22:46:05.008Z,5.93
2023-02-06T22:48:33.247Z,4.85
2023-02-06T22:51:12.110Z,7.40
2023-02-06T22:53:40.270Z,9.25
2023-02-06T22:56:31.031Z,7.50
2023-02-06T22:59:26.384Z,5.65
2023-02-06T23:01:57.291Z,7.55
2023-02-06T23:04:34.035Z,10.00
2023-02-06T23:07:01.408Z,7.18
2023-02-06T23:09:32.293Z,5.38
2023-02-06T23:12:04.081Z,7.40
2023-02-06T23:14:34.665Z,5.47
2023-02-06T23:19:31.767Z,7.00
2023-02-06T23:21:59.958Z,7.40
2023-02-06T23:24:27.673Z,8.00
2023-02-06T23:26:54.409Z,6.68
2023-02-06T23:29:23.147Z,7.20
2023-02-06T23:31:53.267Z,6.72
2023-02-06T23:34:23.874Z,7.03
2023-02-06T23:36:53.528Z,7.15
2023-02-06T23:39:23.857Z,6.50
2023-02-06T23:42:00.953Z,6.35
2023-02-06T23:44:29.962Z,9.38
2023-02-06T23:46:57.842Z,24.73
2023-02-06T23:49:29.925Z,34.55
2023-02-06T23:52:06.973Z,22.05
2023-02-06T23:54:39.716Z,10.35
2023-02-06T23:57:07.917Z,9.80
